createdAt,value
2023-03-29T00:01:42.271Z,6.22
2023-03-29T00:04:13.486Z,6.65
2023-03-29T00:06:41.887Z,8.07
2023-03-29T00:09:09.857Z,13.32
2023-03-29T00:14:02.832Z,5.03
2023-03-29T00:16:29.475Z,5.90
2023-03-29T00:18:55.960Z,8.70
2023-03-29T00:21:22.599Z,6.72
2023-03-29T00:23:48.944Z,8.02
2023-03-29T00:26:15.547Z,11.20
2023-03-29T00:28:42.029Z,8.60
2023-03-29T00:31:11.805Z,6.22
2023-03-29T00:33:38.743Z,9.15
2023-03-29T00:36:07.336Z,7.50
2023-03-29T00:38:34.337Z,8.48
2023-03-29T00:41:01.060Z,5.63
2023-03-29T00:43:27.922Z,6.35
2023-03-29T00:45:54.407Z,7.82
2023-03-29T00:48:25.942Z,5.50
2023-03-29T00:50:57.316Z,6.32
2023-03-29T00:53:29.600Z,7.10
2023-03-29T00:56:02.375Z,7.45
2023-03-29T00:58:35.913Z,8.77
2023-03-29T01:01:15.553Z,6.95
2023-03-29T01:03:54.642Z,7.60
2023-03-29T01:06:24.788Z,7.72
2023-03-29T01:08:55.606Z,8.13
2023-03-29T01:11:29.127Z,7.10
2023-03-29T01:13:59.922Z,12.60
2023-03-29T01:16:28.713Z,6.38
2023-03-29T01:18:58.296Z,6.18
2023-03-29T01:21:32.277Z,5.32
2023-03-29T01:24:20.521Z,6.70
2023-03-29T01:29:45.528Z,5.95
2023-03-29T01:32:17.180Z,7.00
2023-03-29T01:34:56.433Z,5.03
2023-03-29T01:37:36.270Z,5.70
2023-03-29T01:40:05.201Z,5.75
2023-03-29T01:42:51.267Z,6.22
2023-03-29T01:45:31.343Z,6.13
2023-03-29T01:48:06.011Z,7.07
2023-03-29T01:53:12.613Z,9.07
2023-03-29T01:55:42.937Z,6.78
2023-03-29T01:58:12.366Z,6.40
2023-03-29T02:00:41.162Z,5.60
2023-03-29T02:03:09.921Z,7.15
2023-03-29T02:05:39.565Z,6.55
2023-03-29T02:08:09.055Z,7.25
2023-03-29T02:10:36.914Z,8.70
2023-03-29T02:15:30.373Z,6.60
2023-03-29T02:17:57.027Z,7.50
2023-03-29T02:20:30.216Z,7.07
2023-03-29T02:23:12.253Z,10.75
2023-03-29T02:25:38.984Z,8.23
2023-03-29T02:28:06.932Z,6.53
2023-03-29T02:30:48.603Z,8.68
2023-03-29T02:33:23.877Z,12.68
2023-03-29T02:36:05.851Z,10.32
2023-03-29T02:38:32.974Z,7.93
2023-03-29T02:41:00.558Z,11.00
2023-03-29T02:43:28.770Z,8.43
2023-03-29T02:45:56.228Z,11.73
2023-03-29T02:48:27.509Z,9.10
2023-03-29T02:50:58.240Z,7.32
2023-03-29T02:53:34.486Z,8.70
2023-03-29T02:56:02.246Z,8.70
2023-03-29T02:58:29.503Z,7.65
2023-03-29T03:00:58.616Z,7.18
2023-03-29T03:03:25.401Z,10.13
2023-03-29T03:05:52.448Z,6.03
2023-03-29T03:08:18.831Z,7.40
2023-03-29T03:10:45.996Z,8.15
2023-03-29T03:13:12.643Z,10.07
2023-03-29T03:15:42.590Z,6.68
2023-03-29T03:18:10.546Z,10.27
2023-03-29T03:20:37.009Z,6.97
2023-03-29T03:23:03.603Z,7.43
2023-03-29T03:25:30.276Z,9.90
2023-03-29T03:27:57.113Z,6.97
2023-03-29T03:30:23.568Z,9.80
2023-03-29T03:32:51.689Z,8.63
2023-03-29T03:35:19.195Z,7.43
2023-03-29T03:37:45.677Z,7.60
2023-03-29T03:40:13.663Z,11.25
2023-03-29T03:45:08.950Z,7.18
2023-03-29T03:52:31.107Z,9.57
2023-03-29T03:54:57.481Z,9.30
2023-03-29T03:57:25.062Z,7.15
2023-03-29T03:59:52.008Z,9.90
2023-03-29T04:02:20.225Z,8.88
2023-03-29T04:04:47.596Z,8.52
2023-03-29T04:07:14.340Z,7.28
2023-03-29T04:09:40.806Z,9.15
2023-03-29T04:12:07.365Z,9.90
2023-03-29T04:14:33.700Z,9.88
2023-03-29T04:17:00.099Z,8.27
2023-03-29T04:19:27.486Z,9.10
2023-03-29T04:21:53.984Z,9.23
2023-03-29T04:24:20.346Z,8.07
2023-03-29T04:26:47.645Z,11.35
2023-03-29T04:29:13.996Z,8.18
2023-03-29T04:31:40.340Z,8.75
2023-03-29T04:34:07.089Z,8.95
2023-03-29T04:36:33.580Z,7.50
2023-03-29T04:39:01.855Z,11.48
2023-03-29T04:41:28.699Z,8.82
2023-03-29T04:43:56.031Z,8.80
2023-03-29T04:46:25.429Z,10.68
2023-03-29T04:48:52.476Z,10.73
2023-03-29T04:51:20.072Z,12.32
2023-03-29T04:53:46.418Z,8.82
2023-03-29T04:56:13.300Z,10.57
2023-03-29T04:58:39.667Z,6.82
2023-03-29T05:01:06.140Z,9.98
2023-03-29T05:03:32.536Z,6.82
2023-03-29T05:06:07.101Z,8.02
2023-03-29T05:08:34.844Z,8.13
2023-03-29T05:11:01.894Z,14.50
2023-03-29T05:13:28.501Z,9.77
2023-03-29T05:15:55.006Z,6.90
2023-03-29T05:18:22.150Z,9.05
2023-03-29T05:20:51.128Z,8.35
2023-03-29T05:23:17.524Z,7.68
2023-03-29T05:25:44.030Z,12.40
2023-03-29T05:28:10.434Z,9.55
2023-03-29T05:30:36.867Z,11.93
2023-03-29T05:33:05.512Z,6.72
2023-03-29T05:35:32.403Z,9.02
2023-03-29T05:38:00.567Z,7.15
2023-03-29T05:40:27.122Z,7.75
2023-03-29T05:42:53.681Z,9.02
2023-03-29T05:45:20.291Z,8.05
2023-03-29T05:47:46.727Z,10.07
2023-03-29T05:50:13.132Z,8.35
2023-03-29T05:52:41.081Z,8.23
2023-03-29T05:55:08.259Z,8.95
2023-03-29T05:57:38.204Z,10.85
2023-03-29T06:00:32.715Z,9.05
2023-03-29T06:03:03.740Z,9.85
2023-03-29T06:05:36.873Z,8.25
2023-03-29T06:08:03.687Z,9.30
2023-03-29T06:10:30.075Z,9.25
2023-03-29T06:12:56.490Z,9.73
2023-03-29T06:15:24.082Z,7.30
2023-03-29T06:17:50.876Z,10.60
2023-03-29T06:20:17.687Z,9.05
2023-03-29T06:22:46.605Z,7.68
2023-03-29T06:25:14.120Z,10.32
2023-03-29T06:27:40.808Z,12.68
2023-03-29T06:30:07.974Z,10.82
2023-03-29T06:32:35.647Z,8.27
2023-03-29T06:35:02.527Z,7.50
2023-03-29T06:37:29.402Z,6.78
2023-03-29T06:39:57.109Z,9.45
2023-03-29T06:42:24.078Z,8.52
2023-03-29T06:44:50.753Z,8.38
2023-03-29T06:47:20.232Z,9.85
2023-03-29T06:49:46.669Z,8.23
2023-03-29T06:52:13.056Z,11.73
2023-03-29T06:54:39.610Z,8.48
2023-03-29T06:57:06.148Z,8.45
2023-03-29T06:59:33.353Z,10.02
2023-03-29T07:01:59.795Z,12.45
2023-03-29T07:04:26.597Z,8.98
2023-03-29T07:07:01.432Z,9.63
2023-03-29T07:09:29.948Z,10.82
2023-03-29T07:11:57.659Z,14.20
2023-03-29T07:14:28.484Z,12.45
2023-03-29T07:16:56.175Z,11.85
2023-03-29T07:19:24.261Z,11.70
2023-03-29T07:21:53.227Z,11.48
2023-03-29T07:24:20.799Z,10.05
2023-03-29T07:27:00.234Z,11.63
2023-03-29T07:29:30.476Z,11.32
2023-03-29T07:31:56.962Z,7.88
2023-03-29T07:34:24.340Z,11.82
2023-03-29T07:36:51.429Z,14.40
2023-03-29T07:39:17.843Z,10.30
2023-03-29T07:41:44.249Z,9.95
2023-03-29T07:44:10.735Z,10.15
2023-03-29T07:46:37.208Z,10.75
2023-03-29T07:49:03.839Z,14.05
2023-03-29T07:51:30.375Z,10.55
2023-03-29T07:53:56.802Z,10.52
2023-03-29T07:56:23.227Z,13.00
2023-03-29T07:58:49.632Z,13.20
2023-03-29T08:01:18.874Z,10.82
2023-03-29T08:03:46.683Z,10.85
2023-03-29T08:06:13.251Z,8.98
2023-03-29T08:08:39.669Z,15.27
2023-03-29T08:11:08.915Z,11.63
2023-03-29T08:13:35.414Z,11.70
2023-03-29T08:16:02.007Z,14.27
2023-03-29T08:18:28.434Z,13.80
2023-03-29T08:20:54.904Z,10.48
2023-03-29T08:23:21.494Z,13.55
2023-03-29T08:25:47.815Z,11.82
2023-03-29T08:28:14.210Z,14.43
2023-03-29T08:30:41.187Z,11.15
2023-03-29T08:33:07.807Z,17.42
2023-03-29T08:35:34.599Z,15.05
2023-03-29T08:38:01.269Z,15.77
2023-03-29T08:40:30.169Z,15.50
2023-03-29T08:43:07.851Z,15.15
2023-03-29T08:46:01.554Z,13.68
2023-03-29T08:48:57.032Z,12.43
2023-03-29T08:51:23.407Z,15.13
2023-03-29T08:53:58.915Z,13.52
2023-03-29T08:56:31.524Z,14.15
2023-03-29T08:59:01.146Z,15.00
2023-03-29T09:01:33.820Z,12.85
2023-03-29T09:04:09.017Z,17.10
2023-03-29T09:06:35.990Z,17.65
2023-03-29T09:09:02.611Z,13.23
2023-03-29T09:12:03.084Z,15.02
2023-03-29T09:14:38.074Z,16.75
2023-03-29T09:17:30.611Z,15.40
2023-03-29T09:20:15.922Z,15.10
2023-03-29T09:22:57.737Z,13.65
2023-03-29T09:25:53.595Z,13.57
2023-03-29T09:28:36.948Z,15.80
2023-03-29T09:31:16.947Z,15.20
2023-03-29T09:33:54.848Z,15.80
2023-03-29T09:36:27.038Z,13.38
2023-03-29T09:38:55.499Z,15.88
2023-03-29T09:41:41.452Z,15.93
2023-03-29T09:44:23.908Z,17.60
2023-03-29T09:46:58.287Z,17.13
2023-03-29T09:49:33.046Z,16.52
2023-03-29T09:52:05.760Z,17.92
2023-03-29T09:54:32.457Z,15.38
2023-03-29T09:56:59.869Z,15.48
2023-03-29T09:59:26.309Z,15.45
2023-03-29T10:01:52.927Z,14.07
2023-03-29T10:04:21.430Z,17.63
2023-03-29T10:06:51.853Z,14.20
2023-03-29T10:09:24.193Z,13.35
2023-03-29T10:11:56.742Z,17.33
2023-03-29T10:14:31.697Z,17.05
2023-03-29T10:16:59.045Z,15.10
2023-03-29T10:19:32.905Z,14.60
2023-03-29T10:22:20.382Z,16.65
2023-03-29T10:24:52.139Z,16.70
2023-03-29T10:27:28.495Z,13.77
2023-03-29T10:29:56.759Z,16.75
2023-03-29T10:32:32.266Z,14.95
2023-03-29T10:35:23.462Z,21.08
2023-03-29T10:37:53.189Z,17.02
2023-03-29T10:40:30.677Z,13.27
2023-03-29T10:43:25.354Z,13.55
2023-03-29T10:45:54.960Z,14.98
2023-03-29T10:48:29.969Z,16.55
2023-03-29T10:51:02.346Z,14.10
2023-03-29T10:53:35.233Z,17.50
2023-03-29T10:56:20.962Z,18.13
2023-03-29T10:59:16.790Z,19.40
2023-03-29T11:02:14.164Z,18.17
2023-03-29T11:04:46.901Z,17.70
2023-03-29T11:07:31.331Z,19.23
2023-03-29T11:10:05.748Z,19.45
2023-03-29T11:12:45.738Z,17.83
2023-03-29T11:15:46.398Z,16.88
2023-03-29T11:18:31.593Z,16.55
2023-03-29T11:21:11.701Z,17.00
2023-03-29T11:23:50.814Z,19.23
2023-03-29T11:26:23.941Z,18.25
2023-03-29T11:28:57.952Z,20.38
2023-03-29T11:31:30.082Z,17.77
2023-03-29T11:34:02.327Z,17.98
2023-03-29T11:36:42.694Z,20.75
2023-03-29T11:39:30.199Z,17.50
2023-03-29T11:42:07.721Z,18.73
2023-03-29T11:44:36.498Z,22.83
2023-03-29T11:47:15.490Z,17.58
2023-03-29T11:49:53.103Z,19.27
2023-03-29T11:52:25.096Z,20.20
2023-03-29T11:55:03.425Z,20.50
2023-03-29T11:57:58.827Z,16.83
2023-03-29T12:00:38.789Z,20.58
2023-03-29T12:03:36.959Z,16.08
2023-03-29T12:06:11.091Z,18.42
2023-03-29T12:08:44.136Z,17.70
2023-03-29T12:11:43.742Z,19.80
2023-03-29T12:14:48.064Z,18.77
2023-03-29T12:17:23.101Z,23.35
2023-03-29T12:20:08.143Z,20.25
2023-03-29T12:22:34.880Z,21.85
2023-03-29T12:25:05.118Z,22.60
2023-03-29T12:27:37.540Z,22.10
2023-03-29T12:30:18.851Z,22.25
2023-03-29T12:33:05.661Z,23.67
2023-03-29T12:35:47.041Z,23.10
2023-03-29T12:38:30.713Z,22.08
2023-03-29T12:41:00.623Z,23.50
2023-03-29T12:43:43.349Z,22.52
2023-03-29T12:46:20.143Z,21.13
2023-03-29T12:48:50.397Z,29.13
2023-03-29T12:51:23.444Z,20.35
2023-03-29T12:53:55.683Z,21.58
2023-03-29T12:56:54.141Z,25.05
2023-03-29T12:59:38.784Z,22.33
2023-03-29T13:02:14.476Z,21.05
2023-03-29T13:04:43.735Z,21.38
2023-03-29T13:07:22.187Z,25.15
2023-03-29T13:09:56.724Z,22.25
2023-03-29T13:12:35.219Z,25.17
2023-03-29T13:15:07.762Z,22.13
2023-03-29T13:17:43.273Z,20.83
2023-03-29T13:20:20.121Z,24.40
2023-03-29T13:22:52.183Z,24.55
2023-03-29T13:25:36.972Z,23.17
2023-03-29T13:28:11.346Z,25.52
2023-03-29T13:33:45.278Z,24.40
2023-03-29T13:36:34.143Z,26.80
2023-03-29T13:39:07.870Z,25.40
2023-03-29T13:41:40.654Z,23.48
2023-03-29T13:44:22.158Z,21.98
2023-03-29T13:47:00.903Z,21.58
2023-03-29T13:49:30.901Z,22.40
2023-03-29T13:52:30.075Z,25.95
2023-03-29T13:55:04.018Z,23.08
2023-03-29T13:57:49.414Z,21.48
2023-03-29T14:00:25.304Z,24.23
2023-03-29T14:03:01.511Z,22.48
2023-03-29T14:05:54.820Z,25.58
2023-03-29T14:08:28.916Z,24.00
2023-03-29T14:10:56.538Z,21.02
2023-03-29T14:16:02.716Z,23.17
2023-03-29T14:18:37.163Z,30.65
2023-03-29T14:21:03.938Z,24.40
2023-03-29T14:23:33.986Z,20.63
2023-03-29T14:26:15.706Z,21.05
2023-03-29T14:28:49.399Z,24.55
2023-03-29T14:31:30.378Z,21.20
2023-03-29T14:36:26.363Z,22.52
2023-03-29T14:38:57.921Z,20.70
2023-03-29T14:41:30.177Z,24.50
2023-03-29T14:43:57.702Z,20.73
2023-03-29T14:46:25.620Z,22.27
2023-03-29T14:48:52.497Z,20.15
2023-03-29T14:51:20.424Z,21.98
2023-03-29T14:53:48.125Z,18.75
2023-03-29T14:56:18.205Z,19.17
2023-03-29T14:58:48.657Z,18.92
2023-03-29T15:01:21.741Z,19.48
2023-03-29T15:03:57.534Z,17.70
2023-03-29T15:06:26.307Z,19.70
2023-03-29T15:09:04.349Z,16.00
2023-03-29T15:11:33.943Z,17.33
2023-03-29T15:14:09.025Z,18.17
2023-03-29T15:16:45.605Z,17.10
2023-03-29T15:19:22.543Z,16.08
2023-03-29T15:21:51.006Z,17.90
2023-03-29T15:24:23.393Z,16.30
2023-03-29T15:27:00.008Z,16.48
2023-03-29T15:29:35.196Z,15.23
2023-03-29T15:32:02.169Z,16.48
2023-03-29T15:34:30.893Z,16.35
2023-03-29T15:36:57.828Z,14.73
2023-03-29T15:39:25.068Z,17.25
2023-03-29T15:41:53.593Z,15.15
2023-03-29T15:44:27.901Z,15.98
2023-03-29T15:49:24.973Z,11.88
2023-03-29T15:51:53.980Z,15.43
2023-03-29T15:54:21.861Z,15.10
2023-03-29T15:56:52.566Z,14.98
2023-03-29T15:59:19.182Z,12.43
2023-03-29T16:01:46.909Z,13.32
2023-03-29T16:04:17.050Z,12.85
2023-03-29T16:06:48.545Z,12.95
2023-03-29T16:09:17.785Z,12.82
2023-03-29T16:11:45.507Z,13.55
2023-03-29T16:14:19.023Z,13.35
2023-03-29T16:16:45.440Z,14.77
2023-03-29T16:19:11.883Z,13.20
2023-03-29T16:21:38.326Z,13.40
2023-03-29T16:24:05.015Z,12.60
2023-03-29T16:26:31.605Z,11.52
2023-03-29T16:28:57.986Z,9.52
2023-03-29T16:31:27.168Z,11.30
2023-03-29T16:33:54.003Z,10.68
2023-03-29T16:36:20.414Z,11.55
2023-03-29T16:38:47.452Z,11.90
2023-03-29T16:41:17.512Z,8.88
2023-03-29T16:43:44.170Z,11.40
2023-03-29T16:46:11.250Z,10.23
2023-03-29T16:48:38.005Z,12.93
2023-03-29T16:51:05.139Z,10.05
2023-03-29T16:53:31.720Z,12.65
2023-03-29T16:55:58.036Z,9.82
2023-03-29T16:58:24.684Z,11.95
2023-03-29T17:00:54.228Z,10.38
2023-03-29T17:03:21.010Z,11.88
2023-03-29T17:05:48.753Z,11.02
2023-03-29T17:08:15.320Z,15.60
2023-03-29T17:10:42.277Z,11.10
2023-03-29T17:13:09.222Z,10.90
2023-03-29T17:15:38.912Z,15.15
2023-03-29T17:18:06.377Z,12.48
2023-03-29T17:20:32.796Z,10.85
2023-03-29T17:22:59.188Z,12.32
2023-03-29T17:25:25.593Z,10.95
2023-03-29T17:27:52.138Z,14.45
2023-03-29T17:30:18.761Z,11.30
2023-03-29T17:32:45.670Z,9.90
2023-03-29T17:35:13.222Z,12.38
2023-03-29T17:37:39.785Z,12.02
2023-03-29T17:40:11.291Z,13.57
2023-03-29T17:42:37.682Z,12.18
2023-03-29T17:45:04.532Z,11.82
2023-03-29T17:47:30.868Z,13.55
2023-03-29T17:49:57.494Z,12.32
2023-03-29T17:52:23.892Z,11.52
2023-03-29T17:54:50.420Z,12.43
2023-03-29T17:57:17.051Z,13.45
2023-03-29T17:59:46.396Z,11.98
2023-03-29T18:02:23.885Z,12.73
2023-03-29T18:04:50.578Z,12.25
2023-03-29T18:07:17.517Z,13.40
2023-03-29T18:09:43.991Z,13.40
2023-03-29T18:12:10.877Z,17.23
2023-03-29T18:14:37.218Z,11.45
2023-03-29T18:17:03.990Z,12.85
2023-03-29T18:19:30.838Z,13.07
2023-03-29T18:21:57.485Z,14.15
2023-03-29T18:24:23.864Z,13.27
2023-03-29T18:26:50.299Z,12.23
2023-03-29T18:29:16.857Z,12.25
2023-03-29T18:31:43.864Z,13.25
2023-03-29T18:34:10.303Z,12.40
2023-03-29T18:36:37.090Z,13.30
2023-03-29T18:39:05.598Z,15.05
2023-03-29T18:41:34.376Z,14.82
2023-03-29T18:44:00.832Z,18.65
2023-03-29T18:46:30.995Z,12.70
2023-03-29T18:49:01.325Z,13.82
2023-03-29T18:51:28.282Z,14.05
2023-03-29T18:53:55.856Z,15.93
2023-03-29T18:56:22.333Z,12.95
2023-03-29T18:58:49.032Z,12.80
2023-03-29T19:01:15.614Z,14.90
2023-03-29T19:03:42.333Z,14.25
2023-03-29T19:06:08.834Z,13.25
2023-03-29T19:08:38.704Z,19.70
2023-03-29T19:11:07.358Z,13.95
2023-03-29T19:13:34.517Z,12.57
2023-03-29T19:16:01.170Z,12.27
2023-03-29T19:18:27.746Z,10.88
2023-03-29T19:20:54.492Z,12.25
2023-03-29T19:23:22.538Z,11.52
2023-03-29T19:25:57.079Z,11.20
2023-03-29T19:28:24.658Z,12.43
2023-03-29T19:33:18.360Z,14.20
2023-03-29T19:35:44.899Z,14.27
2023-03-29T19:38:11.675Z,12.68
2023-03-29T19:40:38.539Z,10.77
2023-03-29T19:43:05.141Z,15.32
2023-03-29T19:45:31.829Z,12.90
2023-03-29T19:48:02.827Z,10.52
2023-03-29T19:50:31.508Z,11.32
2023-03-29T19:53:01.476Z,13.00
2023-03-29T19:55:28.340Z,9.45
2023-03-29T19:57:54.660Z,12.48
2023-03-29T20:00:24.932Z,11.82
2023-03-29T20:02:52.465Z,11.18
2023-03-29T20:05:20.120Z,12.38
2023-03-29T20:10:13.371Z,13.73
2023-03-29T20:12:39.813Z,12.15
2023-03-29T20:15:07.393Z,12.77
2023-03-29T20:17:35.397Z,11.35
2023-03-29T20:20:03.058Z,10.95
2023-03-29T20:22:31.105Z,12.63
2023-03-29T20:24:57.534Z,12.85
2023-03-29T20:27:23.875Z,14.95
2023-03-29T20:29:50.626Z,12.68
2023-03-29T20:32:17.002Z,13.10
2023-03-29T20:34:43.330Z,14.20
2023-03-29T20:37:10.409Z,15.95
2023-03-29T20:39:37.167Z,13.27
2023-03-29T20:42:03.717Z,18.05
2023-03-29T20:44:31.963Z,14.00
2023-03-29T20:47:03.291Z,11.75
2023-03-29T20:49:39.741Z,12.35
2023-03-29T20:52:09.193Z,11.32
2023-03-29T20:54:36.991Z,11.75
2023-03-29T20:57:04.720Z,12.43
2023-03-29T21:01:58.203Z,14.63
2023-03-29T21:04:24.838Z,12.40
2023-03-29T21:06:51.299Z,12.82
2023-03-29T21:09:23.343Z,13.32
2023-03-29T21:11:50.769Z,10.73
2023-03-29T21:14:21.175Z,10.70
2023-03-29T21:16:49.179Z,12.40
2023-03-29T21:19:16.761Z,10.80
2023-03-29T21:21:44.876Z,11.63
2023-03-29T21:24:13.650Z,11.70
2023-03-29T21:26:41.421Z,9.85
2023-03-29T21:29:08.099Z,10.52
2023-03-29T21:31:34.626Z,11.95
2023-03-29T21:34:01.022Z,12.27
2023-03-29T21:36:27.530Z,10.30
2023-03-29T21:38:54.216Z,11.48
2023-03-29T21:41:20.743Z,11.07
2023-03-29T21:43:47.899Z,12.18
2023-03-29T21:46:14.942Z,9.27
2023-03-29T21:48:41.849Z,9.20
2023-03-29T21:51:08.947Z,13.60
2023-03-29T21:53:35.613Z,11.63
2023-03-29T21:56:02.007Z,16.15
2023-03-29T21:58:28.349Z,10.20
2023-03-29T22:00:56.216Z,10.48
2023-03-29T22:03:23.343Z,12.07
2023-03-29T22:05:57.517Z,12.95
2023-03-29T22:08:26.735Z,12.02
2023-03-29T22:10:57.540Z,10.50
2023-03-29T22:13:28.751Z,14.07
2023-03-29T22:15:59.049Z,11.45
2023-03-29T22:18:46.898Z,10.43
2023-03-29T22:21:18.228Z,11.90
2023-03-29T22:23:47.413Z,11.90
2023-03-29T22:26:15.744Z,14.55
2023-03-29T22:28:42.318Z,11.50
2023-03-29T22:31:11.828Z,11.85
2023-03-29T22:33:38.695Z,12.35
2023-03-29T22:36:29.983Z,11.52
2023-03-29T22:38:56.900Z,15.70
2023-03-29T22:41:25.928Z,12.02
2023-03-29T22:43:53.316Z,13.93
2023-03-29T22:46:20.616Z,11.07
2023-03-29T22:48:47.694Z,14.25
2023-03-29T22:51:14.394Z,11.40
2023-03-29T22:53:40.772Z,12.52
2023-03-29T22:56:09.137Z,13.27
2023-03-29T22:58:38.782Z,9.02
2023-03-29T23:01:06.505Z,10.75
2023-03-29T23:03:33.300Z,10.93
2023-03-29T23:06:03.635Z,10.63
2023-03-29T23:08:32.217Z,11.43
2023-03-29T23:10:58.797Z,12.68
2023-03-29T23:13:28.564Z,11.50
2023-03-29T23:15:58.706Z,10.23
2023-03-29T23:18:27.735Z,10.63
2023-03-29T23:20:55.781Z,11.75
2023-03-29T23:23:23.850Z,12.18
2023-03-29T23:25:52.321Z,9.95
2023-03-29T23:28:23.382Z,9.95
2023-03-29T23:31:19.624Z,12.25
2023-03-29T23:33:46.341Z,11.27
2023-03-29T23:36:15.455Z,9.13
2023-03-29T23:38:44.438Z,12.68
2023-03-29T23:41:12.758Z,14.23
2023-03-29T23:43:41.354Z,9.50
2023-03-29T23:46:10.636Z,11.10
2023-03-29T23:48:37.924Z,10.73
2023-03-29T23:51:04.869Z,14.95
2023-03-29T23:53:32.028Z,14.80
2023-03-29T23:56:01.311Z,9.60
2023-03-29T23:58:30.880Z,11.90
